Time;durP1;ratioP1;P1;durP2;ratioP2;P2;SDS_P1;SDS_P2;PMS_P1;PMS_P2;Temp;Humidity;BMP_temperature;BMP_pressure;BME280_temperature;BME280_humidity;BME280_pressure;Samples;Min_cycle;Max_cycle;Signal;HPM_P1;HPM_P2
2022/12/30 00:01:03;;;;;;;2.22;1.40;;;;;;;7.11;100.00;95343.91;4970398;28;20085;-76
2022/12/30 00:03:29;;;;;;;4.55;1.42;;;;;;;7.18;100.00;95351.56;4971570;28;20058;-75
2022/12/30 00:05:55;;;;;;;2.40;1.58;;;;;;;7.10;100.00;95345.75;4967707;28;20043;-76
2022/12/30 00:11:04;;;;;;;1.77;1.10;;;;;;;7.14;100.00;95345.25;4948173;28;20047;-76
2022/12/30 00:33:48;;;;;;;2.83;1.50;;;;;;;7.34;100.00;95402.19;4934398;29;20047;-76
2022/12/30 00:36:13;;;;;;;2.10;1.30;;;;;;;7.41;100.00;95403.56;4936472;28;20048;-76
2022/12/30 00:38:39;;;;;;;2.03;1.25;;;;;;;7.40;100.00;95412.47;4960504;28;20050;-76
2022/12/30 00:43:49;;;;;;;1.92;1.30;;;;;;;7.32;100.00;95420.78;4951569;28;20051;-76
2022/12/30 00:46:15;;;;;;;2.78;1.35;;;;;;;7.38;100.00;95430.22;4936602;29;20047;-76
2022/12/30 00:56:53;;;;;;;1.17;0.90;;;;;;;7.10;100.00;95454.88;4955431;29;20783;-75
2022/12/30 00:59:19;;;;;;;0.63;0.60;;;;;;;6.66;100.00;95441.91;4958373;28;20105;-75
2022/12/30 01:01:44;;;;;;;0.93;0.50;;;;;;;6.38;100.00;95454.94;4955480;28;20049;-75
2022/12/30 01:04:10;;;;;;;2.47;0.65;;;;;;;6.05;100.00;95487.97;4954460;29;20417;-75
2022/12/30 01:06:37;;;;;;;0.55;0.40;;;;;;;6.00;100.00;95500.94;4947440;28;20094;-75
2022/12/30 01:09:03;;;;;;;0.82;0.32;;;;;;;5.54;100.00;95492.41;4956497;28;20039;-75
2022/12/30 01:11:29;;;;;;;0.43;0.43;;;;;;;5.51;100.00;95503.34;4971993;28;20522;-75
2022/12/30 01:13:54;;;;;;;0.60;0.45;;;;;;;5.50;100.00;95502.56;4974413;28;20051;-75
2022/12/30 01:16:20;;;;;;;0.57;0.30;;;;;;;5.30;100.00;95510.03;4949076;28;20047;-75
2022/12/30 01:18:46;;;;;;;0.70;0.50;;;;;;;5.24;100.00;95524.03;4946406;28;20039;-75
2022/12/30 01:21:11;;;;;;;0.70;0.40;;;;;;;5.19;100.00;95527.34;4969940;28;20043;-75
2022/12/30 01:23:37;;;;;;;2.78;0.77;;;;;;;5.17;100.00;95539.81;4974397;28;20046;-75
2022/12/30 01:26:05;;;;;;;2.65;0.68;;;;;;;5.11;100.00;95535.53;4974173;28;20050;-75
2022/12/30 01:28:33;;;;;;;0.50;0.47;;;;;;;5.08;100.00;95541.22;4956759;28;20043;-75
2022/12/30 01:30:59;;;;;;;0.55;0.40;;;;;;;4.98;100.00;95542.59;4961348;28;20090;-75
2022/12/30 01:33:26;;;;;;;0.35;0.35;;;;;;;5.08;100.00;95541.22;4954996;28;20043;-75
2022/12/30 01:35:52;;;;;;;0.80;0.47;;;;;;;5.00;100.00;95540.56;4966063;28;20042;-75
2022/12/30 01:38:17;;;;;;;1.92;0.43;;;;;;;5.01;100.00;95550.00;4955162;28;20059;-75
2022/12/30 01:40:43;;;;;;;2.28;0.40;;;;;;;4.94;100.00;95544.13;4965678;28;20725;-75
2022/12/30 01:43:12;;;;;;;0.57;0.17;;;;;;;4.92;100.00;95548.75;4968645;28;20047;-75
2022/12/30 01:45:38;;;;;;;0.40;0.40;;;;;;;4.91;100.00;95549.78;4956760;28;20055;-74
2022/12/30 01:48:27;;;;;;;0.60;0.40;;;;;;;4.90;100.00;95550.00;4935503;28;20047;-75
2022/12/30 01:51:09;;;;;;;0.45;0.45;;;;;;;4.92;100.00;95548.75;4948462;28;20051;-75
2022/12/30 01:53:39;;;;;;;0.10;0.10;;;;;;;4.87;100.00;95551.28;4962462;28;20501;-75
2022/12/30 01:56:09;;;;;;;1.00;0.40;;;;;;;4.76;100.00;95539.06;4967635;28;20425;-75
2022/12/30 01:58:44;;;;;;;0.68;0.63;;;;;;;4.76;100.00;95544.28;4949733;28;20047;-75
2022/12/30 02:01:10;;;;;;;0.73;0.45;;;;;;;4.77;100.00;95561.50;4946420;28;20509;-75
2022/12/30 02:03:40;;;;;;;0.55;0.35;;;;;;;4.76;100.00;95554.72;4961813;28;20039;-75
2022/12/30 02:06:06;;;;;;;1.00;0.40;;;;;;;4.72;100.00;95553.59;4947636;28;20083;-75
2022/12/30 02:08:35;;;;;;;0.43;0.30;;;;;;;4.68;100.00;95564.47;4956708;28;20070;-75
2022/12/30 02:11:02;;;;;;;0.63;0.10;;;;;;;4.74;100.00;95561.97;4973653;28;20054;-75
2022/12/30 02:13:28;;;;;;;1.77;0.52;;;;;;;4.64;100.00;95552.94;4970811;28;20050;-75
2022/12/30 02:16:02;;;;;;;0.77;0.20;;;;;;;4.64;100.00;95557.31;4970078;28;20065;-76
2022/12/30 02:18:51;;;;;;;0.77;0.50;;;;;;;4.62;100.00;95552.34;4964678;28;20059;-75
2022/12/30 02:21:29;;;;;;;3.10;0.60;;;;;;;4.54;100.00;95562.34;4944070;28;20131;-74
2022/12/30 02:24:23;;;;;;;0.30;0.30;;;;;;;4.50;100.00;95556.81;4951707;28;20050;-74
2022/12/30 02:27:04;;;;;;;0.80;0.38;;;;;;;4.51;100.00;95547.94;4961520;28;20047;-74
2022/12/30 02:29:32;;;;;;;1.48;0.60;;;;;;;4.48;100.00;95556.22;4936119;28;20044;-75
2022/12/30 02:32:11;;;;;;;0.57;0.38;;;;;;;4.45;100.00;95554.91;4933478;29;20094;-74
2022/12/30 02:35:18;;;;;;;0.45;0.43;;;;;;;4.44;100.00;95562.91;4954946;28;20493;-75
2022/12/30 02:38:09;;;;;;;1.63;0.30;;;;;;;4.46;100.00;95555.69;4951027;28;20039;-75
2022/12/30 02:46:44;;;;;;;0.73;0.30;;;;;;;4.39;100.00;95570.66;4950207;28;20054;-75
2022/12/30 02:49:12;;;;;;;0.40;0.30;;;;;;;4.35;100.00;95565.09;4953540;28;20115;-75
2022/12/30 02:54:42;;;;;;;2.17;0.47;;;;;;;4.38;100.00;95574.25;4935488;28;20525;-75
2022/12/30 02:57:24;;;;;;;0.70;0.60;;;;;;;4.29;100.00;95572.00;4957947;28;20074;-75
2022/12/30 03:05:50;;;;;;;4.88;1.00;;;;;;;4.28;100.00;95570.44;4959817;28;20050;-75
2022/12/30 03:08:26;;;;;;;2.20;1.00;;;;;;;4.23;100.00;95567.69;4964636;28;20497;-75
2022/12/30 03:11:16;;;;;;;2.53;0.98;;;;;;;4.21;100.00;95580.16;4972602;28;20054;-75
2022/12/30 03:13:59;;;;;;;6.63;1.42;;;;;;;4.25;100.00;95586.50;4959654;28;20078;-75
2022/12/30 03:16:33;;;;;;;3.25;0.77;;;;;;;4.18;100.00;95580.63;4959506;28;20207;-76
2022/12/30 03:19:02;;;;;;;3.58;0.98;;;;;;;4.18;100.00;95585.84;4955496;28;20043;-76
2022/12/30 03:21:30;;;;;;;3.60;1.00;;;;;;;4.08;100.00;95585.59;4942648;28;20039;-76
2022/12/30 03:27:05;;;;;;;3.47;0.65;;;;;;;4.11;100.00;95585.16;4959383;28;20126;-76
2022/12/30 03:29:39;;;;;;;0.63;0.57;;;;;;;4.08;100.00;95593.41;4972716;28;20061;-75
2022/12/30 03:32:06;;;;;;;;;;;;;;;4.06;100.00;95595.44;4970325;28;20081;-76
2022/12/30 03:34:33;;;;;;;0.85;0.50;;;;;;;3.99;100.00;95583.34;4955794;28;19929;-76
2022/12/30 03:37:07;;;;;;;2.70;0.50;;;;;;;4.10;100.00;95599.19;4965315;28;20049;-76
2022/12/30 03:39:37;;;;;;;1.08;0.43;;;;;;;3.99;100.00;95603.34;4959390;28;20043;-76
2022/12/30 03:42:06;;;;;;;1.60;0.30;;;;;;;3.99;100.00;95598.97;4966329;28;20128;-76
2022/12/30 03:44:33;;;;;;;3.28;0.50;;;;;;;3.94;100.00;95606.66;4945890;28;20103;-76
2022/12/30 03:46:59;;;;;;;0.15;0.15;;;;;;;3.99;100.00;95598.97;4933139;28;20052;-76
2022/12/30 03:49:25;;;;;;;0.30;0.30;;;;;;;3.95;100.00;95613.44;4941036;28;20056;-76
2022/12/30 03:51:50;;;;;;;0.30;0.15;;;;;;;3.91;100.00;95601.09;4937078;28;20039;-73
2022/12/30 03:54:16;;;;;;;0.80;0.32;;;;;;;3.88;100.00;95602.34;4952147;28;20043;-75
2022/12/30 03:56:41;;;;;;;3.50;0.63;;;;;;;3.90;100.00;95608.09;4951350;28;20043;-76
2022/12/30 03:59:07;;;;;;;2.03;0.60;;;;;;;3.85;100.00;95602.78;4952488;28;20047;-75
2022/12/30 04:01:33;;;;;;;0.30;0.30;;;;;;;3.80;100.00;95598.22;4952536;28;20039;-76
2022/12/30 04:03:58;;;;;;;0.50;0.50;;;;;;;3.87;100.00;95600.75;4968262;28;20039;-76
2022/12/30 04:06:24;;;;;;;0.15;0.15;;;;;;;3.78;100.00;95607.31;4939590;28;20059;-76
2022/12/30 04:08:50;;;;;;;0.60;0.38;;;;;;;3.80;100.00;95605.25;4931950;29;20091;-75
2022/12/30 04:11:15;;;;;;;2.13;0.50;;;;;;;3.80;100.00;95605.25;4933217;29;20039;-76
2022/12/30 04:13:41;;;;;;;1.45;0.50;;;;;;;3.79;100.00;95614.06;4938409;28;20514;-75
2022/12/30 04:16:07;;;;;;;1.23;0.32;;;;;;;3.69;100.00;95598.22;4949789;28;20050;-75
2022/12/30 04:18:33;;;;;;;0.60;0.40;;;;;;;3.76;100.00;95602.28;4932966;28;20050;-76
2022/12/30 04:20:58;;;;;;;2.78;0.65;;;;;;;3.64;100.00;95597.06;4933077;29;20044;-75
2022/12/30 04:23:24;;;;;;;2.30;0.82;;;;;;;3.69;100.00;95598.22;4944166;28;20178;-74
2022/12/30 04:25:49;;;;;;;0.65;0.50;;;;;;;3.59;100.00;95593.56;4970964;28;20042;-74
2022/12/30 04:28:15;;;;;;;2.17;0.85;;;;;;;3.58;100.00;95602.41;4948570;28;20395;-74
2022/12/30 04:30:40;;;;;;;1.25;0.57;;;;;;;3.61;100.00;95607.16;4939671;28;20039;-74
2022/12/30 04:33:06;;;;;;;2.10;0.40;;;;;;;3.56;100.00;95600.00;4950740;28;20118;-74
2022/12/30 04:35:32;;;;;;;0.73;0.35;;;;;;;3.63;100.00;95595.50;4954593;28;20043;-74
2022/12/30 04:37:58;;;;;;;2.47;0.70;;;;;;;3.57;100.00;95591.16;4962023;28;20042;-74
2022/12/30 04:40:23;;;;;;;0.70;0.40;;;;;;;3.67;100.00;95597.66;4970371;28;20051;-76
2022/12/30 04:42:49;;;;;;;7.68;0.70;;;;;;;3.55;100.00;95588.00;4971294;28;20171;-75
2022/12/30 04:45:14;;;;;;;1.55;0.50;;;;;;;3.56;100.00;95594.81;4965000;28;20052;-74
2022/12/30 04:47:40;;;;;;;0.70;0.63;;;;;;;3.56;100.00;95592.22;4968721;28;20089;-75
2022/12/30 04:50:07;;;;;;;0.47;0.35;;;;;;;3.52;100.00;95583.25;4934566;28;20458;-75
2022/12/30 04:52:34;;;;;;;3.58;0.45;;;;;;;3.59;100.00;95590.94;4932631;29;20426;-75
2022/12/30 04:54:59;;;;;;;1.70;0.60;;;;;;;3.49;100.00;95588.88;4931680;28;20103;-74
2022/12/30 04:57:25;;;;;;;1.90;0.73;;;;;;;3.47;100.00;95585.72;4952675;28;20122;-74
2022/12/30 04:59:50;;;;;;;1.10;0.30;;;;;;;3.46;100.00;95589.31;4961362;28;20039;-74
2022/12/30 05:02:16;;;;;;;0.40;0.30;;;;;;;3.38;100.00;95576.66;4967724;28;20520;-74
2022/12/30 05:04:41;;;;;;;5.75;0.70;;;;;;;3.37;100.00;95575.06;4969478;28;20042;-74
2022/12/30 05:07:07;;;;;;;1.58;0.77;;;;;;;3.37;100.00;95575.06;4962069;28;20222;-74
2022/12/30 05:09:33;;;;;;;0.57;0.30;;;;;;;3.47;100.00;95580.50;4961693;28;20039;-75
2022/12/30 05:11:59;;;;;;;3.05;0.50;;;;;;;3.47;100.00;95577.91;4953501;28;20058;-75
2022/12/30 05:14:24;;;;;;;0.90;0.30;;;;;;;3.50;100.00;95580.06;4965280;28;20047;-75
2022/12/30 05:16:50;;;;;;;4.00;1.17;;;;;;;3.40;100.00;95579.81;4950744;28;20039;-75
2022/12/30 05:19:15;;;;;;;1.00;0.30;;;;;;;3.46;100.00;95573.72;4942169;28;20517;-75
2022/12/30 05:21:41;;;;;;;2.13;0.63;;;;;;;3.47;100.00;95577.91;4936130;29;20520;-74
2022/12/30 05:26:53;;;;;;;2.85;0.65;;;;;;;3.44;100.00;95575.75;4957219;28;20412;-74
2022/12/30 05:29:18;;;;;;;0.82;0.15;;;;;;;3.45;100.00;95578.13;4968431;28;20046;-75
2022/12/30 05:31:44;;;;;;;2.83;0.47;;;;;;;3.57;100.00;95569.56;4974483;28;20066;-75
2022/12/30 05:34:10;;;;;;;0.40;0.40;;;;;;;3.55;100.00;95577.59;4974246;28;20468;-75
2022/12/30 05:36:36;;;;;;;2.28;0.52;;;;;;;3.46;100.00;95584.13;4969861;28;20625;-75
2022/12/30 05:39:02;;;;;;;3.35;0.32;;;;;;;3.41;100.00;95587.41;4955999;28;20039;-75
2022/12/30 05:41:28;;;;;;;0.52;0.38;;;;;;;3.42;100.00;95582.97;4971531;28;20051;-75
2022/12/30 05:43:53;;;;;;;1.77;0.47;;;;;;;3.46;100.00;95584.13;4962816;28;20451;-75
2022/12/30 05:46:20;;;;;;;0.68;0.30;;;;;;;3.37;100.00;95585.47;4953621;28;20458;-75
2022/12/30 05:48:45;;;;;;;2.15;0.70;;;;;;;3.29;100.00;95584.75;4949966;28;20114;-75
2022/12/30 05:51:11;;;;;;;0.73;0.30;;;;;;;3.41;100.00;95602.22;4973925;28;20068;-75
2022/12/30 05:53:36;;;;;;;2.47;0.40;;;;;;;3.38;100.00;95602.66;4973984;28;20038;-75
2022/12/30 05:56:03;;;;;;;1.15;0.40;;;;;;;3.39;100.00;95588.63;4972209;28;20035;-75
2022/12/30 05:58:28;;;;;;;0.25;0.20;;;;;;;3.23;100.00;95585.66;4957118;28;20054;-75
2022/12/30 06:00:58;;;;;;;0.52;0.32;;;;;;;3.22;100.00;95584.06;4965765;28;20069;-75
2022/12/30 06:03:24;;;;;;;0.13;0.08;;;;;;;3.29;100.00;95576.97;4964648;28;20118;-75
2022/12/30 06:06:00;;;;;;;0.45;0.30;;;;;;;3.38;100.00;95581.84;4973499;28;20051;-75
2022/12/30 06:08:26;;;;;;;0.22;0.22;;;;;;;3.39;100.00;95580.81;4957791;28;20050;-75
2022/12/30 06:10:52;;;;;;;0.40;0.40;;;;;;;3.21;100.00;95572.06;4969834;28;20039;-75
2022/12/30 06:13:18;;;;;;;0.43;0.20;;;;;;;3.23;100.00;95570.06;4973634;28;20074;-75
2022/12/30 06:15:43;;;;;;;4.30;0.35;;;;;;;3.19;100.00;95568.91;4962595;28;20064;-75
2022/12/30 06:18:09;;;;;;;0.30;0.30;;;;;;;3.17;100.00;95560.50;4934933;28;20052;-74
2022/12/30 06:20:35;;;;;;;1.55;0.65;;;;;;;3.15;100.00;95565.16;4958437;28;20051;-74
2022/12/30 06:23:01;;;;;;;1.63;0.57;;;;;;;3.08;100.00;95567.03;4954086;28;20040;-74
2022/12/30 06:25:27;;;;;;;1.65;0.22;;;;;;;3.09;100.00;95558.25;4953796;28;20058;-74
2022/12/30 06:27:52;;;;;;;0.38;0.30;;;;;;;3.06;100.00;95559.47;4950828;28;20035;-74
2022/12/30 06:30:18;;;;;;;0.43;0.40;;;;;;;3.00;100.00;95560.31;4956916;28;20158;-75
2022/12/30 06:32:43;;;;;;;0.43;0.20;;;;;;;3.05;100.00;95562.28;4972559;28;20042;-75
2022/12/30 06:35:10;;;;;;;0.45;0.32;;;;;;;3.05;100.00;95562.28;4972851;28;20050;-75
2022/12/30 06:37:36;;;;;;;0.65;0.50;;;;;;;2.92;100.00;95569.25;4938945;28;20480;-75
2022/12/30 06:40:02;;;;;;;1.35;0.60;;;;;;;2.93;100.00;95565.63;4940689;28;20047;-75
2022/12/30 06:42:27;;;;;;;0.57;0.50;;;;;;;2.88;100.00;95573.28;4956246;28;20059;-75
2022/12/30 06:44:53;;;;;;;1.45;0.50;;;;;;;2.83;100.00;95583.56;4941202;28;20127;-75
2022/12/30 06:47:18;;;;;;;1.77;0.60;;;;;;;2.76;100.00;95581.03;4934600;29;20115;-75
2022/12/30 06:49:44;;;;;;;1.48;0.95;;;;;;;2.71;100.00;95583.47;4948519;28;20050;-75
2022/12/30 06:52:09;;;;;;;0.50;0.50;;;;;;;2.68;100.00;95586.50;4972853;28;20139;-75
2022/12/30 06:54:35;;;;;;;0.95;0.60;;;;;;;2.64;100.00;95589.75;4969251;28;20071;-75
2022/12/30 06:57:02;;;;;;;2.65;0.70;;;;;;;2.62;100.00;95589.19;4954622;28;20498;-75
2022/12/30 06:59:28;;;;;;;5.95;1.08;;;;;;;2.49;100.00;95595.31;4939843;28;20070;-75
2022/12/30 07:01:53;;;;;;;0.82;0.50;;;;;;;2.43;100.00;95596.97;4953348;28;20098;-75
2022/12/30 07:04:19;;;;;;;2.25;0.73;;;;;;;2.32;100.00;95589.91;4952065;29;20055;-75
2022/12/30 07:06:44;;;;;;;2.47;0.43;;;;;;;2.29;100.00;95590.34;4942429;28;20099;-75
2022/12/30 07:09:10;;;;;;;3.95;1.00;;;;;;;2.30;100.00;95586.69;4933620;29;20043;-75
2022/12/30 07:11:35;;;;;;;1.17;0.85;;;;;;;2.21;100.00;95583.59;4968267;28;20035;-75
2022/12/30 07:14:01;;;;;;;1.77;0.52;;;;;;;2.15;100.00;95585.25;4955766;28;20038;-75
2022/12/30 07:16:27;;;;;;;7.53;2.17;;;;;;;2.11;100.00;95586.66;4933703;29;20137;-74
2022/12/30 07:18:52;;;;;;;4.10;2.40;;;;;;;2.00;100.00;95590.00;4939397;28;20086;-75
2022/12/30 07:21:19;;;;;;;5.32;2.30;;;;;;;2.05;100.00;95595.31;4952125;28;20047;-75
2022/12/30 07:23:44;;;;;;;5.63;2.97;;;;;;;1.96;100.00;95596.63;4951878;29;20043;-76
2022/12/30 07:26:10;;;;;;;2.63;1.58;;;;;;;1.95;100.00;95595.00;4952956;28;20054;-76
2022/12/30 07:28:36;;;;;;;6.55;0.95;;;;;;;1.78;100.00;95585.19;4944600;28;20166;-75
2022/12/30 07:31:01;;;;;;;3.60;1.10;;;;;;;1.67;100.00;95591.03;4968776;28;20046;-78
2022/12/30 07:33:27;;;;;;;3.58;2.28;;;;;;;1.74;100.00;95578.81;4971454;28;20114;-78
2022/12/30 07:35:53;;;;;;;4.85;1.60;;;;;;;1.95;100.00;95584.63;4957966;28;20043;-77
2022/12/30 07:38:18;;;;;;;7.45;2.90;;;;;;;2.08;100.00;95587.09;4950577;28;20051;-78
2022/12/30 07:40:44;;;;;;;5.82;2.88;;;;;;;2.04;100.00;95588.53;4958841;28;20054;-78
2022/12/30 07:43:10;;;;;;;6.05;2.22;;;;;;;2.06;100.00;95591.72;4956659;28;20569;-77
2022/12/30 07:45:36;;;;;;;5.63;1.83;;;;;;;2.23;100.00;95595.34;4944703;28;20071;-77
2022/12/30 07:48:03;;;;;;;6.47;1.70;;;;;;;2.19;100.00;95598.59;4962202;28;20045;-75
2022/12/30 07:50:29;;;;;;;4.95;1.38;;;;;;;2.08;100.00;95594.88;4955942;28;20046;-77
2022/12/30 07:52:55;;;;;;;3.42;1.40;;;;;;;1.97;100.00;95588.59;4964612;28;20050;-78
2022/12/30 07:55:20;;;;;;;4.10;1.65;;;;;;;1.91;100.00;95589.44;4969484;28;20657;-77
2022/12/30 07:57:46;;;;;;;5.65;2.55;;;;;;;1.93;100.00;95597.03;4957227;28;20505;-77
2022/12/30 08:00:12;;;;;;;5.90;1.98;;;;;;;1.96;100.00;95599.22;4954990;28;20044;-77
2022/12/30 08:02:39;;;;;;;9.25;3.10;;;;;;;2.11;100.00;95599.66;4954330;28;20047;-77
2022/12/30 08:05:09;;;;;;;10.23;3.80;;;;;;;2.24;100.00;95603.94;4949888;28;20466;-78
2022/12/30 08:07:35;;;;;;;6.43;2.65;;;;;;;2.30;100.00;95594.50;4962778;28;20050;-76
2022/12/30 08:10:01;;;;;;;9.15;2.42;;;;;;;2.32;100.00;95595.09;4961790;28;20066;-76
2022/12/30 08:12:26;;;;;;;10.25;2.83;;;;;;;2.44;100.00;95593.34;4963234;28;20043;-77
2022/12/30 08:14:52;;;;;;;11.43;2.35;;;;;;;2.53;100.00;95605.06;4964473;28;20039;-78
2022/12/30 08:17:18;;;;;;;7.80;2.88;;;;;;;2.55;100.00;95605.63;4955881;28;20047;-77
2022/12/30 08:19:43;;;;;;;4.07;2.20;;;;;;;2.53;100.00;95602.47;4947474;28;20055;-77
2022/12/30 08:22:09;;;;;;;8.07;2.83;;;;;;;2.65;100.00;95599.16;4955440;28;20438;-77
2022/12/30 08:24:34;;;;;;;7.40;2.67;;;;;;;2.78;100.00;95609.41;4951383;28;20051;-76
2022/12/30 08:27:00;;;;;;;10.15;3.42;;;;;;;2.87;100.00;95602.88;4953657;28;20409;-77
2022/12/30 08:29:25;;;;;;;8.10;3.13;;;;;;;2.93;100.00;95607.22;4933206;29;20047;-78
2022/12/30 08:31:51;;;;;;;7.65;2.88;;;;;;;2.99;100.00;95602.16;4961625;28;20128;-75
2022/12/30 08:34:18;;;;;;;8.13;2.50;;;;;;;3.02;100.00;95599.13;4967037;28;20517;-76
2022/12/30 08:36:45;;;;;;;5.72;2.60;;;;;;;3.03;100.00;95595.50;4938755;28;20043;-75
2022/12/30 08:39:11;;;;;;;5.93;2.53;;;;;;;3.03;100.00;95611.09;4961664;28;20515;-76
2022/12/30 08:41:41;;;;;;;5.43;2.40;;;;;;;3.06;100.00;95608.88;4958808;28;20038;-76
2022/12/30 08:44:07;;;;;;;7.65;2.70;;;;;;;2.98;100.00;95598.75;4963184;28;20043;-76
2022/12/30 08:46:35;;;;;;;7.75;2.67;;;;;;;3.06;100.00;95610.66;4936849;28;20044;-77
2022/12/30 08:49:01;;;;;;;9.27;2.70;;;;;;;2.97;100.00;95601.59;4942187;28;20553;-76
2022/12/30 08:51:27;;;;;;;7.10;2.70;;;;;;;2.98;100.00;95595.38;4942903;28;20097;-76
2022/12/30 08:53:53;;;;;;;7.53;2.30;;;;;;;3.02;100.00;95609.53;4963273;28;20500;-76
2022/12/30 08:56:18;;;;;;;6.90;2.35;;;;;;;3.02;100.00;95614.72;4962349;28;20064;-76
2022/12/30 08:58:44;;;;;;;5.85;2.08;;;;;;;3.04;100.00;95610.09;4961280;28;20050;-78
2022/12/30 09:01:17;;;;;;;5.63;2.30;;;;;;;3.15;100.00;95614.56;4955058;28;20046;-78
2022/12/30 09:03:44;;;;;;;4.15;2.00;;;;;;;3.23;100.00;95622.06;4967531;28;20042;-78
2022/12/30 09:06:12;;;;;;;6.28;2.10;;;;;;;3.34;100.00;95622.34;4966045;28;20062;-75
2022/12/30 09:08:38;;;;;;;8.50;2.33;;;;;;;3.34;100.00;95604.13;4957814;28;20138;-76
2022/12/30 09:11:13;;;;;;;13.98;3.30;;;;;;;3.53;100.00;95605.63;4961665;28;20493;-76
2022/12/30 09:13:39;;;;;;;5.65;2.45;;;;;;;3.62;100.00;95596.50;4961229;28;20054;-76
2022/12/30 09:16:07;;;;;;;5.18;1.55;;;;;;;3.77;100.00;95603.09;4937405;28;20064;-73
2022/12/30 09:18:33;;;;;;;5.18;1.77;;;;;;;3.82;100.00;95608.41;4938503;28;20072;-73
2022/12/30 09:21:00;;;;;;;3.78;1.60;;;;;;;3.91;100.00;95594.06;4954664;29;20110;-73
2022/12/30 09:23:25;;;;;;;4.15;1.70;;;;;;;4.04;100.00;95606.09;4952217;29;20131;-73
2022/12/30 09:25:51;;;;;;;6.25;1.77;;;;;;;4.14;100.00;95605.53;4955307;28;20509;-73
2022/12/30 09:28:16;;;;;;;6.47;1.60;;;;;;;4.26;100.00;95603.72;4939125;28;20061;-74
2022/12/30 09:30:42;;;;;;;7.32;1.38;;;;;;;4.38;100.00;95595.09;4959061;28;20039;-74
2022/12/30 09:33:08;;;;;;;5.18;1.40;;;;;;;4.53;100.00;95595.44;4955749;28;20051;-77
2022/12/30 09:35:34;;;;;;;7.22;1.48;;;;;;;4.63;100.00;95593.03;4951404;28;20098;-77
2022/12/30 09:37:59;;;;;;;3.45;1.42;;;;;;;4.64;100.00;95586.00;4937704;29;20044;-78
2022/12/30 09:40:57;;;;;;;2.00;1.13;;;;;;;4.86;100.00;95591.41;4952397;28;20047;-76
2022/12/30 09:43:43;;;;;;;1.58;1.10;;;;;;;5.15;100.00;95589.63;4955511;28;20071;-77
2022/12/30 09:46:37;;;;;;;3.42;1.15;;;;;;;5.84;100.00;95586.09;4936557;29;20058;-79
2022/12/30 09:49:05;;;;;;;1.25;0.90;;;;;;;6.98;100.00;95583.22;4937040;28;20442;-77
2022/12/30 09:51:40;;;;;;;1.05;0.85;;;;;;;7.95;100.00;95582.59;4953292;29;20060;-76
2022/12/30 09:54:17;;;;;;;1.13;0.90;;;;;;;8.23;100.00;95567.56;4955538;28;20077;-77
2022/12/30 09:56:46;;;;;;;1.48;0.70;;;;;;;8.62;100.00;95551.56;4955290;28;20064;-76
2022/12/30 09:59:28;;;;;;;0.90;0.60;;;;;;;8.43;100.00;95551.19;4954206;29;20043;-77
2022/12/30 10:02:06;;;;;;;2.05;0.90;;;;;;;9.06;100.00;95551.22;4948153;29;20090;-73
2022/12/30 10:04:36;;;;;;;0.63;0.63;;;;;;;9.02;100.00;95534.41;4954566;28;20127;-74
2022/12/30 10:07:05;;;;;;;0.98;0.73;;;;;;;9.33;100.00;95529.22;4951542;29;20039;-74
2022/12/30 10:09:34;;;;;;;0.82;0.70;;;;;;;9.74;100.00;95524.00;4955172;28;20501;-74
2022/12/30 10:12:20;;;;;;;1.58;1.08;;;;;;;9.54;100.00;95514.28;4955069;28;20043;-73
2022/12/30 10:15:20;;;;;;;0.95;0.85;;;;;;;8.99;100.00;95514.72;4941291;28;20050;-74
2022/12/30 10:18:07;;;;;;;2.25;0.98;;;;;;;8.81;100.00;95508.09;4936168;29;20148;-78
2022/12/30 10:20:46;;;;;;;2.05;1.25;;;;;;;8.91;100.00;95506.56;4938399;29;20040;-75
2022/12/30 10:23:33;;;;;;;3.20;1.33;;;;;;;9.69;100.00;95495.09;4949603;28;20103;-75
2022/12/30 10:26:05;;;;;;;2.42;1.15;;;;;;;10.49;100.00;95478.66;4953256;29;20055;-75
2022/12/30 10:28:37;;;;;;;3.17;1.10;;;;;;;11.07;100.00;95469.44;4940991;28;20040;-75
2022/12/30 10:31:07;;;;;;;1.40;1.10;;;;;;;11.29;100.00;95466.38;4960667;28;20039;-74
2022/12/30 10:33:36;;;;;;;1.90;1.10;;;;;;;11.11;100.00;95459.91;4954010;28;20055;-75
2022/12/30 10:36:34;;;;;;;2.00;1.20;;;;;;;12.11;100.00;95455.16;4953961;28;20043;-75
2022/12/30 10:39:15;;;;;;;1.92;1.30;;;;;;;11.67;100.00;95452.66;4964575;28;20506;-75
2022/12/30 10:42:04;;;;;;;2.42;1.30;;;;;;;11.99;100.00;95452.09;4965432;28;20512;-75
2022/12/30 10:44:40;;;;;;;2.30;1.40;;;;;;;11.50;100.00;95439.88;4951911;28;20043;-75
2022/12/30 10:47:40;;;;;;;2.10;1.30;;;;;;;11.79;100.00;95442.50;4934071;29;20036;-76
2022/12/30 10:50:34;;;;;;;2.90;1.40;;;;;;;13.00;96.64;95437.97;4955765;28;20588;-76
2022/12/30 10:53:02;;;;;;;3.72;1.42;;;;;;;13.50;92.67;95439.34;4953686;28;20047;-76
2022/12/30 10:55:31;;;;;;;2.20;1.40;;;;;;;12.44;95.88;95430.78;4957242;28;20039;-77
2022/12/30 10:57:59;;;;;;;2.50;1.48;;;;;;;12.20;89.31;95436.88;4962982;28;20094;-74
2022/12/30 11:00:25;;;;;;;2.67;1.50;;;;;;;11.96;99.07;95429.72;4964362;28;20524;-73
2022/12/30 11:02:58;;;;;;;2.75;1.40;;;;;;;11.56;93.91;95429.00;4953857;28;20055;-74
2022/12/30 11:05:39;;;;;;;3.67;1.50;;;;;;;12.00;91.74;95426.53;4951068;28;20147;-74
2022/12/30 11:08:21;;;;;;;2.90;1.30;;;;;;;11.85;93.36;95420.34;4940981;28;20071;-75
2022/12/30 11:11:01;;;;;;;2.03;1.20;;;;;;;11.78;95.81;95414.59;4964473;28;20046;-74
2022/12/30 11:16:13;;;;;;;1.48;1.27;;;;;;;11.20;100.00;95410.84;4953116;29;20047;-75
2022/12/30 11:18:42;;;;;;;2.13;1.33;;;;;;;11.95;92.48;95404.44;4953728;28;20036;-74
2022/12/30 11:21:09;;;;;;;1.70;1.40;;;;;;;12.56;92.52;95396.84;4967121;28;20046;-73
2022/12/30 11:23:38;;;;;;;1.20;1.10;;;;;;;12.68;87.04;95382.44;4966171;28;20074;-73
2022/12/30 11:26:08;;;;;;;1.25;0.93;;;;;;;13.13;83.37;95377.53;4957238;28;20039;-76
2022/12/30 11:29:05;;;;;;;1.65;1.08;;;;;;;13.96;76.65;95388.31;4958225;28;20054;-75
2022/12/30 11:31:41;;;;;;;1.27;1.00;;;;;;;12.28;87.62;95380.84;4965946;28;20062;-75
2022/12/30 11:34:16;;;;;;;2.05;0.90;;;;;;;12.64;83.54;95361.91;4949847;28;20099;-75
2022/12/30 11:36:42;;;;;;;2.15;0.90;;;;;;;12.97;81.87;95375.16;4950490;28;20098;-75
2022/12/30 11:39:07;;;;;;;1.23;0.77;;;;;;;14.12;79.66;95369.50;4963639;28;20039;-77
2022/12/30 11:41:44;;;;;;;1.38;1.10;;;;;;;13.54;78.11;95366.31;4952289;28;20043;-76
2022/12/30 11:44:18;;;;;;;1.58;0.80;;;;;;;13.64;80.29;95360.84;4954588;28;20050;-77
2022/12/30 11:46:52;;;;;;;1.02;0.65;;;;;;;13.49;78.26;95351.34;4941410;28;20039;-77
2022/12/30 11:49:17;;;;;;;0.63;0.63;;;;;;;14.10;67.45;95350.50;4948934;28;20043;-76
2022/12/30 11:51:48;;;;;;;0.93;0.80;;;;;;;13.20;73.45;95348.88;4941584;28;20403;-73
2022/12/30 11:54:20;;;;;;;0.60;0.60;;;;;;;14.10;73.06;95348.63;4946687;28;20043;-74
2022/12/30 11:57:07;;;;;;;1.10;0.73;;;;;;;13.47;74.13;95347.41;4946505;28;20043;-73
2022/12/30 11:59:45;;;;;;;2.10;1.08;;;;;;;14.26;69.76;95327.91;4942101;28;20035;-73
2022/12/30 12:02:24;;;;;;;1.55;1.10;;;;;;;14.97;67.41;95324.81;4951147;29;20076;-73
2022/12/30 12:04:50;;;;;;;0.63;0.63;;;;;;;15.18;61.84;95324.31;4956554;28;20039;-74
2022/12/30 12:07:16;;;;;;;2.10;1.10;;;;;;;15.20;62.57;95322.13;4952653;28;20039;-73
2022/12/30 12:09:50;;;;;;;1.75;1.00;;;;;;;14.56;66.40;95320.41;4951041;28;20043;-73
2022/12/30 12:12:17;;;;;;;;;;;;;;;14.12;64.64;95321.88;4952631;28;20043;-73
2022/12/30 12:15:16;;;;;;;2.45;1.23;;;;;;;13.55;67.05;95317.69;4940974;28;19930;-74
2022/12/30 12:17:51;;;;;;;1.52;1.10;;;;;;;15.06;64.29;95306.31;4951842;28;20039;-73
2022/12/30 12:20:55;;;;;;;1.15;1.00;;;;;;;14.38;69.74;95312.31;4933511;28;20078;-74
2022/12/30 12:23:49;;;;;;;2.30;1.35;;;;;;;13.96;68.41;95311.59;4943032;29;20605;-74
2022/12/30 12:26:27;;;;;;;1.27;1.10;;;;;;;13.02;73.90;95315.41;4958441;28;20053;-74
2022/12/30 12:28:55;;;;;;;2.58;1.30;;;;;;;12.80;71.74;95311.47;4946025;28;20047;-74
2022/12/30 12:31:23;;;;;;;3.03;1.50;;;;;;;11.93;82.63;95308.97;4962172;28;20465;-73
2022/12/30 12:34:03;;;;;;;2.35;1.30;;;;;;;12.07;81.75;95316.22;4957266;28;20075;-73
2022/12/30 12:36:43;;;;;;;3.47;1.60;;;;;;;11.63;82.94;95314.59;4956630;28;20871;-73
2022/12/30 12:39:28;;;;;;;2.67;1.40;;;;;;;10.72;91.05;95315.91;4958408;28;20051;-73
2022/12/30 12:42:07;;;;;;;2.03;1.30;;;;;;;10.41;94.62;95321.38;4967149;28;20070;-73
2022/12/30 12:45:05;;;;;;;3.60;1.67;;;;;;;10.02;100.00;95314.19;4963626;28;20043;-73